Time;durP1;ratioP1;P1;durP2;ratioP2;P2;SDS_P1;SDS_P2;PMS_P1;PMS_P2;Temp;Humidity;BMP_temperature;BMP_pressure;BME280_temperature;BME280_humidity;BME280_pressure;Samples;Min_cycle;Max_cycle;Signal;HPM_P1;HPM_P2
2022/03/15 00:01:33;;;;;;;9.57;6.78;;;8.40;99.90;;;;;;5093554;28;20289;-66
2022/03/15 00:04:00;;;;;;;7.65;6.55;;;8.40;99.90;;;;;;5093127;28;20206;-66
2022/03/15 00:06:27;;;;;;;9.80;7.22;;;8.40;99.90;;;;;;5093792;28;20312;-66
2022/03/15 00:08:54;;;;;;;9.60;6.88;;;8.30;99.90;;;;;;5093646;28;20209;-66
2022/03/15 00:11:23;;;;;;;8.70;6.75;;;8.30;99.90;;;;;;5093470;28;20545;-66
2022/03/15 00:13:49;;;;;;;9.65;6.85;;;8.30;99.90;;;;;;5093070;28;20682;-66
2022/03/15 00:16:17;;;;;;;10.82;6.95;;;8.30;99.90;;;;;;5093097;28;20224;-66
2022/03/15 00:18:44;;;;;;;8.50;6.60;;;8.00;99.90;;;;;;5093389;28;20214;-66
2022/03/15 00:21:12;;;;;;;10.60;7.20;;;7.90;99.90;;;;;;5093223;28;20212;-66
2022/03/15 00:23:39;;;;;;;7.45;6.65;;;8.00;99.90;;;;;;5092896;28;20206;-66
2022/03/15 00:26:07;;;;;;;7.93;6.80;;;8.00;99.90;;;;;;5092974;28;20226;-65
2022/03/15 00:28:35;;;;;;;10.00;7.10;;;8.10;99.90;;;;;;5093059;28;20212;-66
2022/03/15 00:31:04;;;;;;;8.43;7.10;;;8.20;99.90;;;;;;5093312;28;20288;-66
2022/03/15 00:33:30;;;;;;;7.30;6.53;;;8.30;99.90;;;;;;5092522;28;20213;-66
2022/03/15 00:35:59;;;;;;;7.07;6.38;;;8.40;99.90;;;;;;5093159;28;20254;-66
2022/03/15 00:38:26;;;;;;;11.00;6.38;;;8.40;99.90;;;;;;5092708;28;20221;-66
2022/03/15 00:40:53;;;;;;;9.05;7.22;;;8.50;99.90;;;;;;5093774;28;20221;-66
2022/03/15 00:43:20;;;;;;;7.00;6.30;;;8.50;99.90;;;;;;5093864;28;20297;-65
2022/03/15 00:45:48;;;;;;;7.88;6.70;;;8.50;99.90;;;;;;5094070;28;20224;-66
2022/03/15 00:48:15;;;;;;;7.90;7.20;;;8.60;99.90;;;;;;5093785;28;20202;-65
2022/03/15 00:50:42;;;;;;;8.10;7.30;;;8.50;99.90;;;;;;5094567;28;20574;-66
2022/03/15 00:53:10;;;;;;;8.50;7.60;;;8.40;99.90;;;;;;5093843;28;20297;-65
2022/03/15 00:55:37;;;;;;;8.98;7.28;;;8.40;99.90;;;;;;5094202;28;20317;-66
2022/03/15 00:58:05;;;;;;;11.65;7.22;;;8.40;99.90;;;;;;5094174;28;20529;-66
2022/03/15 01:00:32;;;;;;;10.23;6.45;;;8.40;99.90;;;;;;5093839;28;20202;-66
2022/03/15 01:03:01;;;;;;;7.22;5.95;;;8.40;99.90;;;;;;5094107;28;20198;-66
2022/03/15 01:05:27;;;;;;;10.32;5.95;;;8.40;99.90;;;;;;5093897;28;20224;-65
2022/03/15 01:07:54;;;;;;;6.88;6.20;;;8.40;99.90;;;;;;5093620;28;20202;-66
2022/03/15 01:10:21;;;;;;;7.35;6.00;;;8.50;99.90;;;;;;5093945;28;20201;-66
2022/03/15 01:12:48;;;;;;;7.45;6.53;;;8.40;99.90;;;;;;5093864;28;20541;-66
2022/03/15 01:15:16;;;;;;;7.40;6.45;;;8.40;99.90;;;;;;5093925;28;20197;-66
2022/03/15 01:17:43;;;;;;;8.98;8.18;;;8.40;99.90;;;;;;5093384;28;20691;-66
2022/03/15 01:20:12;;;;;;;11.02;6.70;;;8.40;99.90;;;;;;5094269;28;20229;-66
2022/03/15 01:22:39;;;;;;;8.98;7.22;;;8.40;99.90;;;;;;5093797;28;20218;-66
2022/03/15 01:25:07;;;;;;;9.35;7.75;;;8.40;99.90;;;;;;5093509;28;20202;-66
2022/03/15 01:27:34;;;;;;;8.32;7.50;;;8.40;99.90;;;;;;5093995;28;20608;-66
2022/03/15 01:30:01;;;;;;;8.65;7.75;;;8.10;99.90;;;;;;5094071;28;20599;-66
2022/03/15 01:32:28;;;;;;;8.57;7.72;;;8.10;99.90;;;;;;5095514;28;20198;-66
2022/03/15 01:34:54;;;;;;;8.32;7.43;;;8.20;99.90;;;;;;5097546;28;20202;-66
2022/03/15 01:37:23;;;;;;;7.82;7.00;;;8.20;99.90;;;;;;5097584;28;20771;-66
2022/03/15 01:39:50;;;;;;;7.53;6.75;;;8.10;99.90;;;;;;5097787;28;20198;-66
2022/03/15 01:42:16;;;;;;;6.90;6.20;;;8.20;99.90;;;;;;5097830;28;20202;-66
2022/03/15 01:44:47;;;;;;;7.80;7.00;;;8.20;99.90;;;;;;5097213;28;20667;-66
2022/03/15 01:47:14;;;;;;;11.60;7.38;;;8.30;99.90;;;;;;5097178;28;20221;-66
2022/03/15 01:49:41;;;;;;;11.13;7.32;;;8.20;99.90;;;;;;5097750;28;20209;-66
2022/03/15 01:52:12;;;;;;;9.63;6.88;;;8.10;99.90;;;;;;5097122;28;20686;-66
2022/03/15 01:54:41;;;;;;;9.00;7.45;;;8.20;99.90;;;;;;5096921;28;20628;-66
2022/03/15 01:57:08;;;;;;;12.10;7.93;;;8.20;99.90;;;;;;5098082;28;20263;-66
2022/03/15 01:59:36;;;;;;;8.50;7.68;;;8.20;99.90;;;;;;5097207;28;20703;-66
2022/03/15 02:02:04;;;;;;;10.52;7.72;;;8.30;99.90;;;;;;5097744;28;20564;-66
2022/03/15 02:04:32;;;;;;;7.57;6.80;;;8.20;99.90;;;;;;5096766;28;20227;-66
2022/03/15 02:07:04;;;;;;;7.70;7.00;;;8.20;99.90;;;;;;5097451;28;20222;-66
2022/03/15 02:09:31;;;;;;;9.07;7.20;;;8.20;99.90;;;;;;5097506;28;20586;-66
2022/03/15 02:12:00;;;;;;;9.32;6.90;;;8.20;99.90;;;;;;5097454;28;20202;-66
2022/03/15 02:14:27;;;;;;;8.98;7.10;;;8.20;99.90;;;;;;5096756;28;20551;-66
2022/03/15 02:16:54;;;;;;;7.85;6.70;;;8.20;99.90;;;;;;5097045;28;20552;-66
2022/03/15 02:19:22;;;;;;;8.00;7.13;;;8.20;99.90;;;;;;5096559;28;20218;-66
2022/03/15 02:21:50;;;;;;;11.35;8.77;;;8.20;99.90;;;;;;5096793;28;20230;-66
2022/03/15 02:24:18;;;;;;;15.15;11.93;;;8.20;99.90;;;;;;5096756;28;20668;-66
2022/03/15 02:26:44;;;;;;;8.98;7.82;;;8.10;99.90;;;;;;5096583;28;20226;-66
2022/03/15 02:29:11;;;;;;;9.18;7.57;;;8.20;99.90;;;;;;5096371;28;20202;-66
2022/03/15 02:31:39;;;;;;;8.00;7.10;;;8.30;99.90;;;;;;5096775;28;20308;-66
2022/03/15 02:34:06;;;;;;;12.90;7.80;;;8.40;99.90;;;;;;5096569;28;20711;-66
2022/03/15 02:36:33;;;;;;;8.35;6.72;;;8.30;99.90;;;;;;5096683;28;20691;-66
2022/03/15 02:39:01;;;;;;;8.50;6.00;;;8.40;99.90;;;;;;5096525;28;20229;-66
2022/03/15 02:41:28;;;;;;;9.57;8.13;;;8.30;99.90;;;;;;5097291;28;20309;-66
2022/03/15 02:43:56;;;;;;;11.02;8.32;;;8.40;99.90;;;;;;5095065;28;20229;-66
2022/03/15 02:46:28;;;;;;;9.27;8.00;;;8.40;99.90;;;;;;5096653;28;20621;-66
2022/03/15 02:48:55;;;;;;;12.80;8.40;;;8.40;99.90;;;;;;5096456;28;20533;-66
2022/03/15 02:51:22;;;;;;;11.65;7.85;;;8.40;99.90;;;;;;5096293;28;20293;-66
2022/03/15 02:53:52;;;;;;;16.13;8.65;;;8.40;99.90;;;;;;5096109;28;20678;-66
2022/03/15 02:56:21;;;;;;;10.13;8.30;;;8.40;99.90;;;;;;5096178;28;20233;-66
2022/03/15 02:58:48;;;;;;;10.13;7.90;;;8.30;99.90;;;;;;5096096;28;20224;-66
2022/03/15 03:01:15;;;;;;;10.23;9.20;;;8.30;99.90;;;;;;5096237;28;20521;-66
2022/03/15 03:03:42;;;;;;;10.10;8.90;;;8.20;99.90;;;;;;5095646;28;20206;-66
2022/03/15 03:06:09;;;;;;;11.43;8.40;;;8.20;99.90;;;;;;5096419;28;20572;-66
2022/03/15 03:08:36;;;;;;;10.48;8.50;;;8.30;99.90;;;;;;5096348;28;20230;-66
2022/03/15 03:11:03;;;;;;;9.23;8.02;;;8.30;99.90;;;;;;5096062;28;20208;-66
2022/03/15 03:13:34;;;;;;;8.32;7.10;;;8.40;99.90;;;;;;5095786;28;20209;-66
2022/03/15 03:16:01;;;;;;;8.15;6.78;;;8.40;99.90;;;;;;5095973;28;20587;-66
2022/03/15 03:18:32;;;;;;;9.32;7.05;;;8.30;99.90;;;;;;5095328;28;20221;-66
2022/03/15 03:20:59;;;;;;;8.30;6.97;;;8.30;99.90;;;;;;5096192;28;20218;-66
2022/03/15 03:23:26;;;;;;;8.55;7.65;;;8.20;99.90;;;;;;5095362;28;20210;-66
2022/03/15 03:25:52;;;;;;;9.85;7.75;;;8.00;99.90;;;;;;5095786;28;20317;-66
2022/03/15 03:28:19;;;;;;;7.75;7.05;;;7.70;99.90;;;;;;5095666;28;20301;-66
2022/03/15 03:30:48;;;;;;;8.48;7.57;;;7.70;99.90;;;;;;5095211;28;20292;-66
2022/03/15 03:33:15;;;;;;;11.45;9.30;;;7.80;99.90;;;;;;5095503;28;20202;-65
2022/03/15 03:35:43;;;;;;;8.70;7.90;;;7.90;99.90;;;;;;5095409;28;20218;-66
2022/03/15 03:38:10;;;;;;;8.48;7.68;;;7.90;99.90;;;;;;5095422;28;20693;-66
2022/03/15 03:40:37;;;;;;;8.55;7.38;;;8.00;99.90;;;;;;5095396;28;20733;-66
2022/03/15 03:43:04;;;;;;;12.57;7.72;;;7.90;99.90;;;;;;5095275;28;20283;-66
2022/03/15 03:45:30;;;;;;;8.45;6.90;;;7.80;99.90;;;;;;5095605;28;20202;-66
2022/03/15 03:47:59;;;;;;;8.18;7.47;;;7.90;99.90;;;;;;5095806;28;20648;-66
2022/03/15 03:50:25;;;;;;;7.95;7.15;;;8.00;99.90;;;;;;5095314;28;20204;-66
2022/03/15 03:52:52;;;;;;;9.70;8.70;;;8.10;99.90;;;;;;5095305;28;20206;-66
2022/03/15 03:55:19;;;;;;;11.32;9.48;;;8.10;99.90;;;;;;5094617;28;20209;-66
2022/03/15 03:57:46;;;;;;;11.75;9.68;;;8.20;99.90;;;;;;5095050;28;20202;-66
2022/03/15 04:00:14;;;;;;;11.32;9.38;;;8.20;99.90;;;;;;5094695;28;20222;-66
2022/03/15 04:02:41;;;;;;;10.77;9.68;;;8.20;99.90;;;;;;5095284;28;20533;-66
2022/03/15 04:05:10;;;;;;;11.27;9.98;;;8.20;99.90;;;;;;5094310;28;20202;-66
2022/03/15 04:07:39;;;;;;;10.30;9.23;;;8.10;99.90;;;;;;5094620;28;20226;-66
2022/03/15 04:10:07;;;;;;;9.75;8.57;;;8.10;99.90;;;;;;5094716;28;20198;-66
2022/03/15 04:12:34;;;;;;;9.32;7.53;;;8.00;99.90;;;;;;5094630;28;20210;-66
2022/03/15 04:15:02;;;;;;;7.43;6.60;;;8.10;99.90;;;;;;5094164;28;20567;-65
2022/03/15 04:17:28;;;;;;;8.35;7.18;;;8.20;99.90;;;;;;5095592;28;20222;-66
2022/03/15 04:19:55;;;;;;;7.28;6.40;;;8.20;99.90;;;;;;5094569;28;20222;-65
2022/03/15 04:22:23;;;;;;;8.88;7.10;;;8.10;99.90;;;;;;5095504;28;20209;-66
2022/03/15 04:24:50;;;;;;;7.97;7.05;;;8.20;99.90;;;;;;5094613;28;20202;-66
2022/03/15 04:27:17;;;;;;;7.32;6.63;;;8.10;99.90;;;;;;5094072;28;20218;-66
2022/03/15 04:29:45;;;;;;;8.35;7.03;;;8.00;99.90;;;;;;5094239;28;20236;-66
2022/03/15 04:32:12;;;;;;;11.38;7.13;;;8.10;99.90;;;;;;5094426;28;20198;-66
2022/03/15 04:34:40;;;;;;;8.48;6.50;;;8.10;99.90;;;;;;5094341;28;20201;-66
2022/03/15 04:37:06;;;;;;;7.95;6.88;;;8.10;99.90;;;;;;5094298;28;20232;-66
2022/03/15 04:39:35;;;;;;;7.90;7.10;;;7.80;99.90;;;;;;5094176;28;20228;-66
2022/03/15 04:42:02;;;;;;;8.95;7.25;;;7.60;99.90;;;;;;5094766;28;20202;-66
2022/03/15 04:44:28;;;;;;;13.40;8.30;;;7.40;99.90;;;;;;5094056;28;20755;-65
2022/03/15 04:46:55;;;;;;;8.73;7.70;;;7.30;99.90;;;;;;5093842;28;20226;-66
2022/03/15 04:49:22;;;;;;;10.18;8.48;;;7.10;99.90;;;;;;5094098;28;20194;-66
2022/03/15 04:51:49;;;;;;;10.77;8.20;;;7.10;99.90;;;;;;5094151;28;20198;-66
2022/03/15 04:54:16;;;;;;;10.95;8.40;;;7.00;99.90;;;;;;5093871;28;20229;-66
2022/03/15 04:56:45;;;;;;;10.15;7.85;;;7.20;99.90;;;;;;5093654;28;20308;-66
2022/03/15 04:59:11;;;;;;;9.95;8.40;;;7.40;99.90;;;;;;5093912;28;20234;-66
2022/03/15 05:01:38;;;;;;;8.77;7.97;;;7.50;99.90;;;;;;5093947;28;20242;-66
2022/03/15 05:04:05;;;;;;;9.75;7.70;;;7.50;99.90;;;;;;5093741;28;20216;-66
2022/03/15 05:06:33;;;;;;;10.30;8.35;;;7.70;99.90;;;;;;5093010;28;20332;-66
2022/03/15 05:09:00;;;;;;;11.07;9.20;;;7.70;99.90;;;;;;5094581;28;20194;-66
2022/03/15 05:11:28;;;;;;;10.40;8.77;;;7.70;99.90;;;;;;5094420;28;20201;-66
2022/03/15 05:13:56;;;;;;;9.48;7.72;;;7.70;99.90;;;;;;5093840;28;20202;-66
2022/03/15 05:16:23;;;;;;;9.70;8.40;;;7.80;99.90;;;;;;5093473;28;20695;-66
2022/03/15 05:18:54;;;;;;;10.02;9.02;;;7.80;99.90;;;;;;5093935;28;20308;-66
2022/03/15 05:21:24;;;;;;;12.90;9.90;;;7.80;99.90;;;;;;5094165;28;20247;-66
2022/03/15 05:23:53;;;;;;;10.25;8.00;;;7.80;99.90;;;;;;5093702;28;20719;-66
2022/03/15 05:26:20;;;;;;;11.05;8.13;;;7.90;99.90;;;;;;5093663;28;20229;-66
2022/03/15 05:28:49;;;;;;;10.85;8.13;;;7.90;99.90;;;;;;5093729;28;20240;-66
2022/03/15 05:31:19;;;;;;;9.07;8.15;;;7.80;99.90;;;;;;5093898;28;20247;-66
2022/03/15 05:33:46;;;;;;;13.45;8.63;;;7.60;99.90;;;;;;5093556;28;20695;-66
2022/03/15 05:36:14;;;;;;;11.45;8.27;;;7.50;99.90;;;;;;5093262;28;20226;-66
2022/03/15 05:38:41;;;;;;;11.55;7.25;;;7.40;99.90;;;;;;5093193;28;20198;-65
2022/03/15 05:41:08;;;;;;;10.57;8.02;;;7.50;99.90;;;;;;5093590;28;20613;-66
2022/03/15 05:43:36;;;;;;;11.40;8.13;;;7.70;99.90;;;;;;5093375;28;20199;-65
2022/03/15 05:46:03;;;;;;;10.48;7.95;;;7.80;99.90;;;;;;5093622;28;20225;-66
2022/03/15 05:48:32;;;;;;;11.20;8.38;;;7.90;99.90;;;;;;5093885;28;20221;-66
2022/03/15 05:50:59;;;;;;;10.93;8.10;;;8.00;99.90;;;;;;5094113;28;20591;-66
2022/03/15 05:53:26;;;;;;;9.35;7.85;;;7.90;99.90;;;;;;5093023;28;20204;-66
2022/03/15 05:55:52;;;;;;;8.45;7.57;;;8.00;99.90;;;;;;5093115;28;20729;-66
2022/03/15 05:58:19;;;;;;;9.10;7.80;;;8.10;99.90;;;;;;5093684;28;20549;-66
2022/03/15 06:00:46;;;;;;;7.68;6.75;;;8.00;99.90;;;;;;5093330;28;20313;-66
2022/03/15 06:03:13;;;;;;;7.50;6.63;;;8.10;99.90;;;;;;5093442;28;20293;-66
2022/03/15 06:05:41;;;;;;;6.95;5.90;;;8.10;99.90;;;;;;5093302;28;20222;-65
2022/03/15 06:08:08;;;;;;;7.97;6.70;;;8.10;99.90;;;;;;5093163;28;20206;-66
2022/03/15 06:10:35;;;;;;;7.82;6.13;;;8.00;99.90;;;;;;5092099;28;20551;-66
2022/03/15 06:13:03;;;;;;;9.55;7.15;;;7.90;99.90;;;;;;5081221;28;20210;-66
2022/03/15 06:15:29;;;;;;;11.10;7.38;;;7.70;99.90;;;;;;5071594;28;20249;-67
2022/03/15 06:17:59;;;;;;;10.88;7.18;;;7.60;99.90;;;;;;5072575;28;20202;-67
2022/03/15 06:20:26;;;;;;;9.27;7.57;;;7.50;99.90;;;;;;5081104;28;20214;-67
2022/03/15 06:22:55;;;;;;;9.98;7.97;;;7.40;99.90;;;;;;5095744;28;20571;-67
2022/03/15 06:25:22;;;;;;;11.07;7.03;;;7.30;99.90;;;;;;5095191;28;20202;-66
2022/03/15 06:27:50;;;;;;;10.82;6.65;;;7.50;99.90;;;;;;5095207;28;20292;-67
2022/03/15 06:30:17;;;;;;;9.70;7.30;;;7.60;99.90;;;;;;5095759;28;20198;-66
2022/03/15 06:32:44;;;;;;;10.45;8.15;;;7.80;99.90;;;;;;5095125;28;20289;-66
2022/03/15 06:35:13;;;;;;;9.05;7.18;;;7.90;99.90;;;;;;5095174;28;20212;-67
2022/03/15 06:37:44;;;;;;;10.30;8.65;;;8.00;99.90;;;;;;5095261;28;20233;-66
2022/03/15 06:40:14;;;;;;;14.38;8.35;;;8.20;99.90;;;;;;5095156;28;20267;-66
2022/03/15 06:42:41;;;;;;;10.57;8.35;;;8.30;99.90;;;;;;5095019;28;20206;-66
2022/03/15 06:45:09;;;;;;;10.85;8.98;;;8.40;99.90;;;;;;5095197;28;20533;-66
2022/03/15 06:47:37;;;;;;;11.70;8.60;;;8.50;99.90;;;;;;5094662;28;20225;-66
2022/03/15 06:50:07;;;;;;;10.63;7.80;;;8.50;99.90;;;;;;5094971;28;20664;-66
2022/03/15 06:52:34;;;;;;;10.35;8.63;;;8.50;99.90;;;;;;5094912;28;20652;-66
2022/03/15 06:55:01;;;;;;;11.70;9.25;;;8.50;99.90;;;;;;5094610;28;20206;-67
2022/03/15 06:57:29;;;;;;;13.25;9.93;;;8.50;99.90;;;;;;5094826;28;20308;-66
2022/03/15 06:59:56;;;;;;;11.65;9.27;;;8.40;99.90;;;;;;5094846;28;20816;-67
2022/03/15 07:02:23;;;;;;;13.63;9.85;;;8.40;99.90;;;;;;5094958;28;20202;-67
2022/03/15 07:04:50;;;;;;;10.50;9.20;;;8.40;99.90;;;;;;5095510;28;20204;-65
2022/03/15 07:07:17;;;;;;;11.55;9.60;;;8.40;99.90;;;;;;5096088;28;20308;-70
2022/03/15 07:09:43;;;;;;;11.35;9.52;;;8.40;99.90;;;;;;5096232;28;20676;-67
2022/03/15 07:12:11;;;;;;;12.00;9.57;;;8.40;99.90;;;;;;5096361;28;20297;-67
2022/03/15 07:14:39;;;;;;;11.55;8.80;;;8.50;99.90;;;;;;5095748;28;20206;-67
2022/03/15 07:17:06;;;;;;;9.90;8.52;;;8.50;99.90;;;;;;5095670;28;20599;-67
2022/03/15 07:19:33;;;;;;;12.52;9.20;;;8.60;99.90;;;;;;5096256;28;20225;-67
2022/03/15 07:22:00;;;;;;;10.55;9.43;;;8.60;99.90;;;;;;5095444;28;20292;-67
2022/03/15 07:24:27;;;;;;;11.85;9.93;;;8.60;99.90;;;;;;5095508;28;20288;-67
2022/03/15 07:26:53;;;;;;;10.55;9.45;;;8.60;99.90;;;;;;5095954;28;20229;-66
2022/03/15 07:29:20;;;;;;;12.10;10.60;;;8.50;99.90;;;;;;5094939;28;20213;-67
2022/03/15 07:31:48;;;;;;;11.00;9.80;;;8.50;99.90;;;;;;5095316;28;20237;-67
2022/03/15 07:34:15;;;;;;;11.52;9.48;;;8.50;99.90;;;;;;5095227;28;20210;-67
2022/03/15 07:36:42;;;;;;;14.00;10.13;;;8.30;99.90;;;;;;5095708;28;20222;-66
2022/03/15 07:39:09;;;;;;;11.80;9.85;;;8.40;99.90;;;;;;5095650;28;20201;-67
2022/03/15 07:41:38;;;;;;;13.00;9.88;;;8.30;99.90;;;;;;5095394;28;20208;-66
2022/03/15 07:44:05;;;;;;;10.75;9.65;;;8.40;99.90;;;;;;5095258;28;20206;-67
2022/03/15 07:46:32;;;;;;;14.43;10.15;;;8.40;99.90;;;;;;5095486;28;20541;-67
2022/03/15 07:49:01;;;;;;;13.00;10.63;;;8.30;99.90;;;;;;5094975;28;20735;-67
2022/03/15 07:51:27;;;;;;;13.43;10.15;;;8.30;99.90;;;;;;5095512;28;20199;-67
2022/03/15 07:53:54;;;;;;;11.60;9.82;;;8.40;99.90;;;;;;5095156;28;20294;-67
2022/03/15 07:56:21;;;;;;;15.85;11.02;;;8.50;99.90;;;;;;5095005;28;20225;-67
2022/03/15 07:58:48;;;;;;;11.30;9.70;;;8.70;99.90;;;;;;5095918;28;20543;-67
2022/03/15 08:01:15;;;;;;;12.45;10.98;;;8.80;99.90;;;;;;5094840;28;20240;-67
2022/03/15 08:03:42;;;;;;;11.90;10.18;;;8.90;99.90;;;;;;5094484;28;20735;-67
2022/03/15 08:06:10;;;;;;;11.27;10.07;;;9.00;99.90;;;;;;5094832;28;20221;-67
2022/03/15 08:08:37;;;;;;;13.70;10.48;;;9.10;99.90;;;;;;5095616;28;20208;-67
2022/03/15 08:11:06;;;;;;;19.45;11.35;;;9.00;99.90;;;;;;5094878;28;20198;-67
2022/03/15 08:13:34;;;;;;;12.98;11.20;;;9.00;99.90;;;;;;5094704;28;20203;-67
2022/03/15 08:16:02;;;;;;;17.58;11.05;;;9.20;99.90;;;;;;5094816;28;20291;-67
2022/03/15 08:18:29;;;;;;;13.38;11.45;;;9.30;99.90;;;;;;5094651;28;20263;-67
2022/03/15 08:20:58;;;;;;;12.93;11.60;;;9.40;99.90;;;;;;5094450;28;20226;-67
2022/03/15 08:23:26;;;;;;;12.63;9.98;;;9.40;99.90;;;;;;5094174;28;20674;-67
2022/03/15 08:25:55;;;;;;;11.38;10.27;;;9.50;99.90;;;;;;5094052;28;20218;-67
2022/03/15 08:28:22;;;;;;;13.60;10.25;;;9.70;99.90;;;;;;5094150;28;20245;-67
2022/03/15 08:30:49;;;;;;;12.05;10.85;;;9.90;99.90;;;;;;5094692;28;20285;-67
2022/03/15 08:33:16;;;;;;;12.18;10.98;;;9.90;99.90;;;;;;5094567;28;20201;-67
2022/03/15 08:35:43;;;;;;;11.02;9.35;;;10.00;99.90;;;;;;5094665;28;20218;-67
2022/03/15 08:38:11;;;;;;;12.65;9.82;;;10.10;99.90;;;;;;5094311;28;20198;-67
2022/03/15 08:40:39;;;;;;;11.60;9.90;;;10.30;99.90;;;;;;5094589;28;20702;-67
2022/03/15 08:43:06;;;;;;;13.55;9.52;;;10.50;99.90;;;;;;5094355;28;20201;-66
2022/03/15 08:45:34;;;;;;;10.25;9.15;;;10.50;99.90;;;;;;5094388;28;20202;-67
2022/03/15 08:48:00;;;;;;;14.73;9.70;;;10.60;99.90;;;;;;5094077;28;20202;-67
2022/03/15 08:50:28;;;;;;;11.38;9.55;;;10.70;99.90;;;;;;5093756;28;20678;-67
2022/03/15 08:52:55;;;;;;;13.18;9.20;;;10.80;99.90;;;;;;5094247;28;20621;-67
2022/03/15 08:55:23;;;;;;;12.45;9.55;;;10.90;99.90;;;;;;5093795;28;20567;-67
2022/03/15 08:57:51;;;;;;;9.50;8.57;;;11.00;99.90;;;;;;5094532;28;20202;-66
2022/03/15 09:00:18;;;;;;;11.68;8.80;;;11.00;99.90;;;;;;5093875;28;20224;-67
2022/03/15 09:02:46;;;;;;;11.20;8.60;;;11.10;99.90;;;;;;5093963;28;20606;-67
2022/03/15 09:05:13;;;;;;;8.90;8.05;;;11.20;99.90;;;;;;5093865;28;20301;-67
2022/03/15 09:07:40;;;;;;;6.85;5.78;;;11.20;99.90;;;;;;5094152;28;20221;-67
2022/03/15 09:10:08;;;;;;;5.63;5.00;;;11.30;99.90;;;;;;5094077;28;20255;-66
2022/03/15 09:12:35;;;;;;;10.38;6.38;;;11.40;99.80;;;;;;5093908;28;20206;-67
2022/03/15 09:15:04;;;;;;;7.97;4.07;;;11.50;98.90;;;;;;5093642;28;20202;-67
2022/03/15 09:17:31;;;;;;;5.00;4.00;;;11.50;98.50;;;;;;5093778;28;20309;-67
2022/03/15 09:19:57;;;;;;;4.45;3.60;;;11.50;98.90;;;;;;5094306;28;20204;-67
2022/03/15 09:22:24;;;;;;;3.65;3.30;;;11.60;99.60;;;;;;5094328;28;20308;-67
2022/03/15 09:24:51;;;;;;;5.60;3.78;;;11.60;99.90;;;;;;5094511;28;20214;-66
2022/03/15 09:27:18;;;;;;;3.95;3.58;;;11.50;99.90;;;;;;5093883;28;20308;-67
2022/03/15 09:29:45;;;;;;;4.53;4.07;;;11.60;99.90;;;;;;5093724;28;20210;-67
2022/03/15 09:32:13;;;;;;;4.97;4.13;;;11.60;99.90;;;;;;5093722;28;20288;-67
2022/03/15 09:34:40;;;;;;;4.90;3.88;;;11.60;99.90;;;;;;5093839;28;20202;-67
2022/03/15 09:37:07;;;;;;;12.25;9.13;;;11.70;99.90;;;;;;5093557;28;20316;-67
2022/03/15 09:39:34;;;;;;;4.95;3.92;;;11.70;99.90;;;;;;5093958;28;20208;-67
2022/03/15 09:42:03;;;;;;;4.57;3.63;;;11.70;99.90;;;;;;5093784;28;20226;-67
2022/03/15 09:44:30;;;;;;;4.72;4.22;;;11.80;99.90;;;;;;5093598;28;20202;-66
2022/03/15 09:47:05;;;;;;;3.75;3.40;;;11.80;99.90;;;;;;5093193;28;20229;-67
2022/03/15 09:49:34;;;;;;;4.82;3.53;;;11.90;99.90;;;;;;5093568;28;20225;-67
2022/03/15 09:52:01;;;;;;;4.57;4.18;;;12.00;99.90;;;;;;5093551;28;20205;-67
2022/03/15 09:54:29;;;;;;;10.00;7.45;;;12.00;99.90;;;;;;5096386;28;20679;-66
2022/03/15 09:56:57;;;;;;;11.32;9.35;;;12.00;99.90;;;;;;5097787;28;20226;-67
2022/03/15 09:59:26;;;;;;;12.60;10.10;;;11.80;99.90;;;;;;5097263;28;20202;-67
2022/03/15 10:01:56;;;;;;;12.32;9.93;;;11.70;99.90;;;;;;5097122;28;20279;-67
2022/03/15 10:04:24;;;;;;;13.20;10.60;;;11.60;99.90;;;;;;5097157;28;20548;-67
2022/03/15 10:06:53;;;;;;;11.73;9.68;;;11.70;99.90;;;;;;5096969;28;20225;-67
2022/03/15 10:09:21;;;;;;;13.30;9.40;;;11.50;99.90;;;;;;5097099;28;20204;-67
2022/03/15 10:11:48;;;;;;;11.25;9.25;;;11.50;99.90;;;;;;5097120;28;20199;-67
2022/03/15 10:14:17;;;;;;;11.20;8.75;;;11.50;99.90;;;;;;5096755;28;20738;-67
2022/03/15 10:16:44;;;;;;;9.60;8.50;;;11.40;99.90;;;;;;5096725;28;20222;-67
2022/03/15 10:19:12;;;;;;;9.25;8.30;;;11.40;99.90;;;;;;5097316;28;20198;-67
2022/03/15 10:21:46;;;;;;;8.65;7.75;;;11.40;99.90;;;;;;5097212;28;20679;-67
2022/03/15 10:24:18;;;;;;;8.13;7.32;;;11.50;99.90;;;;;;5097262;28;20531;-66
2022/03/15 10:26:46;;;;;;;8.32;6.93;;;11.60;99.90;;;;;;5096999;28;20248;-67
2022/03/15 10:29:14;;;;;;;7.47;6.78;;;11.60;99.90;;;;;;5096636;28;20623;-67
2022/03/15 10:31:42;;;;;;;7.60;6.60;;;11.60;99.90;;;;;;5096706;28;20198;-67
2022/03/15 10:34:10;;;;;;;9.25;8.10;;;11.80;99.90;;;;;;5096531;28;20237;-66
2022/03/15 10:36:39;;;;;;;8.75;6.63;;;11.80;99.90;;;;;;5096384;28;20699;-67
2022/03/15 10:39:07;;;;;;;8.30;6.88;;;12.00;99.90;;;;;;5096586;28;20208;-67
2022/03/15 10:41:45;;;;;;;11.25;8.60;;;11.90;99.90;;;;;;5096758;28;20662;-67
2022/03/15 10:44:17;;;;;;;14.00;8.82;;;11.90;99.90;;;;;;5096600;28;20206;-66
2022/03/15 10:46:44;;;;;;;9.60;8.60;;;11.80;99.90;;;;;;5096298;28;20218;-67
2022/03/15 10:49:11;;;;;;;10.15;8.25;;;11.70;99.90;;;;;;5096365;28;20198;-67
2022/03/15 10:51:38;;;;;;;10.25;8.50;;;11.70;99.90;;;;;;5096257;28;20255;-67
2022/03/15 10:54:06;;;;;;;11.18;8.73;;;11.70;99.90;;;;;;5096095;28;20210;-66
2022/03/15 10:56:34;;;;;;;11.32;8.88;;;11.70;99.90;;;;;;5095828;28;20226;-66
2022/03/15 10:59:05;;;;;;;10.15;8.68;;;11.80;99.90;;;;;;5096540;28;20533;-67
2022/03/15 11:01:38;;;;;;;10.40;9.35;;;11.80;99.90;;;;;;5096130;28;20206;-67
2022/03/15 11:04:07;;;;;;;10.18;9.18;;;11.70;99.90;;;;;;5095493;28;20202;-66
2022/03/15 11:06:38;;;;;;;13.65;9.10;;;11.70;99.90;;;;;;5095819;28;20226;-67
2022/03/15 11:09:16;;;;;;;12.38;9.80;;;11.70;99.90;;;;;;5096264;28;20284;-66
2022/03/15 11:11:44;;;;;;;13.88;11.05;;;11.50;99.90;;;;;;5096413;28;20198;-67
2022/03/15 11:14:13;;;;;;;14.30;10.98;;;11.50;99.90;;;;;;5095786;28;20202;-66
2022/03/15 11:16:45;;;;;;;12.73;11.02;;;11.40;99.90;;;;;;5096020;28;20299;-67
2022/03/15 11:19:14;;;;;;;14.98;10.77;;;11.40;99.90;;;;;;5095977;28;20234;-67
2022/03/15 11:21:43;;;;;;;13.95;11.55;;;11.40;99.90;;;;;;5096034;28;20222;-67
2022/03/15 11:24:13;;;;;;;13.90;11.25;;;11.50;99.90;;;;;;5095547;28;20541;-67
2022/03/15 11:26:44;;;;;;;13.15;11.18;;;11.50;99.90;;;;;;5095759;28;20226;-67
2022/03/15 11:29:14;;;;;;;13.65;11.43;;;11.60;99.90;;;;;;5095412;28;20690;-67
2022/03/15 11:31:41;;;;;;;15.55;11.00;;;11.60;99.90;;;;;;5095490;28;20202;-67
2022/03/15 11:34:08;;;;;;;11.85;10.65;;;11.60;99.90;;;;;;5095535;28;20202;-67
2022/03/15 11:36:35;;;;;;;11.27;10.10;;;11.60;99.90;;;;;;5095671;28;20222;-67
2022/03/15 11:39:02;;;;;;;11.88;10.77;;;11.60;99.90;;;;;;5095313;28;20251;-67
2022/03/15 11:41:29;;;;;;;12.25;10.70;;;11.20;99.90;;;;;;5095213;28;20677;-67
2022/03/15 11:44:06;;;;;;;12.60;11.40;;;11.20;99.90;;;;;;5095152;28;20323;-67
2022/03/15 11:46:43;;;;;;;14.75;11.55;;;11.20;99.90;;;;;;5094930;28;20557;-67
2022/03/15 11:49:20;;;;;;;12.45;11.10;;;11.20;99.90;;;;;;5095100;28;20212;-67
2022/03/15 11:51:56;;;;;;;13.38;11.45;;;11.30;99.90;;;;;;5095238;28;20529;-67
2022/03/15 11:54:30;;;;;;;14.05;12.75;;;11.30;99.90;;;;;;5094671;28;20190;-67
2022/03/15 11:57:00;;;;;;;15.48;13.20;;;11.10;99.90;;;;;;5095014;28;20245;-67
2022/03/15 11:59:44;;;;;;;19.00;12.70;;;11.00;99.90;;;;;;5095201;28;20198;-67
2022/03/15 12:02:12;;;;;;;18.80;12.02;;;10.90;99.90;;;;;;5094813;28;20709;-67
2022/03/15 12:04:40;;;;;;;13.02;11.73;;;11.00;99.90;;;;;;5095195;28;20293;-67
2022/03/15 12:07:09;;;;;;;14.23;12.27;;;11.00;99.90;;;;;;5094545;28;20226;-67
2022/03/15 12:09:36;;;;;;;14.25;12.55;;;10.80;99.90;;;;;;5095343;28;20230;-67
2022/03/15 12:12:06;;;;;;;13.95;12.48;;;10.70;99.90;;;;;;5095177;28;20195;-67
2022/03/15 12:14:38;;;;;;;14.98;13.10;;;10.60;99.90;;;;;;5094337;28;20298;-67
2022/03/15 12:17:05;;;;;;;16.60;12.30;;;10.60;99.90;;;;;;5094616;28;20726;-67
2022/03/15 12:19:44;;;;;;;13.50;12.10;;;10.70;99.90;;;;;;5094575;28;20567;-67
2022/03/15 12:22:24;;;;;;;13.05;11.85;;;10.70;99.90;;;;;;5094515;28;20305;-67
2022/03/15 12:25:03;;;;;;;13.02;11.65;;;10.90;99.90;;;;;;5094247;28;20202;-67
2022/03/15 12:27:40;;;;;;;11.35;10.20;;;11.00;99.90;;;;;;5094686;28;20591;-67
2022/03/15 12:30:08;;;;;;;8.90;8.00;;;11.20;99.90;;;;;;5094543;28;20190;-67
2022/03/15 12:32:35;;;;;;;12.25;10.00;;;11.20;99.90;;;;;;5095041;28;20208;-67
2022/03/15 12:35:08;;;;;;;11.88;9.70;;;11.10;99.90;;;;;;5093866;28;20199;-66
2022/03/15 12:37:37;;;;;;;10.88;9.82;;;11.10;99.90;;;;;;5094338;28;20229;-67
2022/03/15 12:40:10;;;;;;;12.70;10.35;;;11.00;99.90;;;;;;5094430;28;20202;-67
2022/03/15 12:42:37;;;;;;;10.95;9.77;;;10.90;99.90;;;;;;5094732;28;20613;-67
2022/03/15 12:45:10;;;;;;;10.52;9.43;;;10.90;99.90;;;;;;5094371;28;20209;-67
2022/03/15 12:47:43;;;;;;;12.30;9.10;;;10.90;99.90;;;;;;5094891;28;20230;-67
2022/03/15 12:50:21;;;;;;;10.50;9.40;;;10.90;99.90;;;;;;5093926;28;20660;-67